Time;durP1;ratioP1;P1;durP2;ratioP2;P2;SDS_P1;SDS_P2;PMS_P1;PMS_P2;Temp;Humidity;BMP_temperature;BMP_pressure;BME280_temperature;BME280_humidity;BME280_pressure;Samples;Min_cycle;Max_cycle;Signal;HPM_P1;HPM_P2
2024/01/01 00:00:39;;;;;;;87.60;48.50;;;;;;;10.04;67.76;99846.34;5031113;28;20063;-26
2024/01/01 00:03:05;;;;;;;96.45;48.08;;;;;;;9.96;67.33;99847.34;5031244;28;20037;-26
2024/01/01 00:05:30;;;;;;;97.03;47.92;;;;;;;9.95;67.77;99851.00;5030984;28;20021;-26
2024/01/01 00:07:57;;;;;;;93.03;47.33;;;;;;;9.96;67.69;99847.34;5031020;28;20119;-26
2024/01/01 00:10:22;;;;;;;96.53;49.13;;;;;;;10.06;66.94;99847.78;5030957;28;20309;-26
2024/01/01 00:12:47;;;;;;;89.93;47.03;;;;;;;9.95;66.86;99837.72;5031034;28;20400;-26
2024/01/01 00:15:13;;;;;;;95.85;49.25;;;;;;;9.96;67.20;99842.84;5031058;28;20480;-26
2024/01/01 00:17:39;;;;;;;94.32;49.03;;;;;;;9.99;66.35;99846.94;5030781;28;20473;-26
2024/01/01 00:20:05;;;;;;;94.82;49.17;;;;;;;10.07;66.34;99846.78;5030740;28;20030;-27
2024/01/01 00:22:31;;;;;;;93.28;48.80;;;;;;;10.09;66.32;99851.88;5030705;28;20032;-27
2024/01/01 00:24:58;;;;;;;93.97;50.47;;;;;;;10.06;66.22;99858.44;5030621;28;20018;-26
2024/01/01 00:27:24;;;;;;;100.20;51.70;;;;;;;10.07;66.42;99852.09;5030641;28;20426;-26
2024/01/01 00:29:50;;;;;;;102.38;51.80;;;;;;;10.04;66.04;99852.50;5030751;28;20092;-27
2024/01/01 00:32:16;;;;;;;99.15;51.00;;;;;;;9.97;65.82;99830.38;5030581;28;20022;-26
2024/01/01 00:34:41;;;;;;;100.63;50.45;;;;;;;9.82;67.16;99853.59;5030536;28;20013;-26
2024/01/01 00:37:07;;;;;;;97.95;50.75;;;;;;;9.59;67.85;99852.88;5030490;28;20500;-26
2024/01/01 00:39:32;;;;;;;102.78;51.97;;;;;;;9.56;67.25;99847.09;5030787;28;20044;-27
2024/01/01 00:41:57;;;;;;;103.30;51.53;;;;;;;9.57;67.53;99854.06;5030521;28;20025;-27
2024/01/01 00:44:25;;;;;;;104.68;51.97;;;;;;;9.59;67.71;99852.88;5030489;28;20073;-26
2024/01/01 00:46:50;;;;;;;103.97;51.42;;;;;;;9.57;67.49;99849.56;5030589;28;20021;-27
2024/01/01 00:49:16;;;;;;;98.35;51.22;;;;;;;9.65;67.35;99856.53;5030331;28;20048;-27
2024/01/01 00:51:41;;;;;;;104.07;51.75;;;;;;;9.62;67.91;99853.47;5030217;28;20080;-27
2024/01/01 00:54:07;;;;;;;101.65;52.10;;;;;;;9.70;67.21;99848.81;5030415;28;20104;-27
2024/01/01 00:56:32;;;;;;;106.60;52.78;;;;;;;9.67;66.73;99853.69;5030268;28;20052;-26
2024/01/01 00:58:58;;;;;;;103.63;51.47;;;;;;;9.72;67.06;99845.97;5030276;28;20082;-27
2024/01/01 01:01:23;;;;;;;102.45;51.38;;;;;;;9.78;67.20;99845.19;5030523;28;20036;-27
2024/01/01 01:03:48;;;;;;;101.38;52.92;;;;;;;9.81;67.01;99844.81;5030459;28;20089;-27
2024/01/01 01:06:14;;;;;;;102.88;51.63;;;;;;;9.76;66.69;99833.94;5030538;28;20040;-26
2024/01/01 01:08:39;;;;;;;101.65;51.05;;;;;;;9.77;66.47;99833.75;5030475;28;20374;-26
2024/01/01 01:11:04;;;;;;;99.15;50.78;;;;;;;9.74;66.26;99828.81;5030586;28;20108;-27
2024/01/01 01:13:30;;;;;;;99.80;50.70;;;;;;;9.59;67.38;99823.63;5030085;28;20437;-27
2024/01/01 01:15:55;;;;;;;104.07;52.15;;;;;;;9.60;66.80;99827.09;5030039;28;20064;-27
2024/01/01 01:18:21;;;;;;;103.45;50.83;;;;;;;9.38;67.52;99823.69;5030500;28;20025;-27
2024/01/01 01:20:48;;;;;;;102.03;52.67;;;;;;;9.31;68.23;99821.00;5030435;28;20127;-27
2024/01/01 01:23:13;;;;;;;103.40;52.28;;;;;;;9.36;67.25;99823.88;5029998;28;20127;-26
2024/01/01 01:25:39;;;;;;;104.28;52.85;;;;;;;9.41;67.40;99817.19;5029979;28;20167;-27
2024/01/01 01:28:04;;;;;;;100.43;52.08;;;;;;;9.31;67.91;99818.34;5030165;28;20105;-27
2024/01/01 01:30:29;;;;;;;103.45;52.60;;;;;;;9.35;67.80;99819.59;5030094;28;20083;-27
2024/01/01 01:32:55;;;;;;;106.68;53.67;;;;;;;9.22;68.34;99814.16;5030153;28;20112;-27
2024/01/01 01:35:20;;;;;;;107.28;51.33;;;;;;;9.20;68.08;99814.38;5029804;28;20022;-27
2024/01/01 01:37:45;;;;;;;107.70;53.17;;;;;;;9.21;67.96;99799.25;5030261;28;20025;-27
2024/01/01 01:40:11;;;;;;;106.40;53.50;;;;;;;9.32;68.17;99819.97;5030107;28;20404;-26
2024/01/01 01:42:37;;;;;;;100.07;51.42;;;;;;;9.22;68.34;99816.00;5031106;28;20033;-27
2024/01/01 01:45:03;;;;;;;102.05;52.50;;;;;;;9.18;67.98;99807.63;5033522;28;20595;-26
2024/01/01 01:47:29;;;;;;;104.43;52.42;;;;;;;9.20;67.38;99817.00;5033646;28;20052;-27
2024/01/01 01:49:55;;;;;;;105.45;52.65;;;;;;;9.08;67.86;99818.56;5033486;28;20441;-26
2024/01/01 01:52:21;;;;;;;100.70;52.10;;;;;;;9.08;68.12;99812.41;5033223;28;20505;-26
2024/01/01 01:54:50;;;;;;;101.20;51.60;;;;;;;8.99;68.10;99820.53;5033315;28;20111;-26
2024/01/01 01:57:16;;;;;;;100.82;51.53;;;;;;;8.89;68.96;99824.50;5033449;28;20030;-27
2024/01/01 01:59:45;;;;;;;100.75;51.85;;;;;;;8.74;69.38;99813.97;5033342;28;20500;-26
2024/01/01 02:02:11;;;;;;;103.10;53.42;;;;;;;8.73;69.17;99814.97;5033315;28;20517;-26
2024/01/01 02:04:37;;;;;;;99.80;51.90;;;;;;;8.63;69.59;99807.34;5033252;28;20079;-27
2024/01/01 02:07:02;;;;;;;100.50;51.58;;;;;;;8.75;69.49;99805.81;5033203;28;20116;-26
2024/01/01 02:09:28;;;;;;;101.20;50.03;;;;;;;8.84;68.78;99808.34;5033366;28;20056;-27
2024/01/01 02:11:53;;;;;;;109.18;51.67;;;;;;;8.81;68.72;99809.53;5033186;28;20025;-26
2024/01/01 02:14:18;;;;;;;103.38;50.60;;;;;;;8.79;68.29;99809.72;5033134;28;20025;-26
2024/01/01 02:16:44;;;;;;;98.95;50.92;;;;;;;8.66;69.25;99806.13;5032851;28;20033;-26
2024/01/01 02:19:20;;;;;;;102.07;50.85;;;;;;;8.71;69.14;99801.06;5033181;28;20327;-26
2024/01/01 02:21:50;;;;;;;103.30;51.25;;;;;;;8.56;69.45;99793.19;5032752;28;20098;-26
2024/01/01 02:24:15;;;;;;;106.95;52.38;;;;;;;8.53;69.34;99786.44;5032972;28;20405;-27
2024/01/01 02:26:42;;;;;;;103.78;53.33;;;;;;;8.57;69.11;99792.19;5032654;28;20025;-27
2024/01/01 02:29:08;;;;;;;100.82;52.35;;;;;;;8.49;68.88;99793.13;5032495;28;20029;-27
2024/01/01 02:31:33;;;;;;;99.53;50.10;;;;;;;8.49;68.59;99793.13;5032555;28;20033;-27
2024/01/01 02:33:58;;;;;;;99.35;50.38;;;;;;;8.43;68.91;99788.56;5032702;28;20096;-27
2024/01/01 02:36:24;;;;;;;102.82;52.30;;;;;;;8.49;68.16;99789.63;5032536;28;20400;-26
2024/01/01 02:38:49;;;;;;;106.05;52.10;;;;;;;8.38;69.07;99788.28;5032609;28;20033;-26
2024/01/01 02:41:15;;;;;;;98.68;50.58;;;;;;;8.32;68.89;99786.34;5032562;28;20096;-26
2024/01/01 02:43:40;;;;;;;104.65;50.33;;;;;;;8.39;68.94;99781.94;5032339;28;20021;-26
2024/01/01 02:46:05;;;;;;;100.45;50.75;;;;;;;8.32;68.60;99783.72;5030938;28;20465;-27
2024/01/01 02:48:31;;;;;;;104.05;51.22;;;;;;;8.17;69.41;99786.41;5032460;28;20032;-26
2024/01/01 02:50:56;;;;;;;96.22;49.15;;;;;;;8.25;68.67;99788.94;5032344;28;20045;-27
2024/01/01 02:53:22;;;;;;;97.25;51.65;;;;;;;8.34;68.29;99784.34;5031824;28;20029;-26
2024/01/01 02:55:47;;;;;;;106.20;51.78;;;;;;;8.17;69.28;99775.81;5031853;28;20326;-26
2024/01/01 02:58:12;;;;;;;104.90;50.33;;;;;;;8.09;69.70;99774.09;5032243;28;20500;-27
2024/01/01 03:00:38;;;;;;;105.13;50.10;;;;;;;8.15;69.46;99781.31;5031971;28;20044;-26
2024/01/01 03:03:04;;;;;;;93.15;50.40;;;;;;;7.99;69.65;99771.72;5032143;28;20035;-26
2024/01/01 03:05:29;;;;;;;103.25;50.92;;;;;;;7.93;70.50;99776.97;5031666;28;20026;-26
2024/01/01 03:07:54;;;;;;;96.57;50.13;;;;;;;7.88;71.27;99776.69;5032120;28;20061;-26
2024/01/01 03:10:20;;;;;;;98.22;49.85;;;;;;;7.83;71.04;99774.59;5032156;28;20035;-26
2024/01/01 03:12:45;;;;;;;97.13;50.78;;;;;;;7.95;70.96;99774.94;5031800;28;20025;-27
2024/01/01 03:15:11;;;;;;;101.00;50.47;;;;;;;7.76;71.20;99777.16;5031767;28;20029;-26
2024/01/01 03:17:36;;;;;;;101.95;51.17;;;;;;;7.63;70.97;99767.22;5031715;28;20029;-26
2024/01/01 03:20:04;;;;;;;101.85;51.13;;;;;;;7.66;70.95;99765.22;5030319;28;20447;-26
2024/01/01 03:22:29;;;;;;;108.13;51.60;;;;;;;7.72;70.21;99770.56;5031616;28;20048;-27
2024/01/01 03:24:55;;;;;;;109.53;52.75;;;;;;;7.56;71.06;99762.84;5031516;28;20466;-27
2024/01/01 03:27:20;;;;;;;112.03;54.92;;;;;;;7.71;69.99;99768.94;5031821;28;20128;-27
2024/01/01 03:29:46;;;;;;;107.47;52.95;;;;;;;7.60;70.15;99769.41;5031506;28;20412;-26
2024/01/01 03:32:11;;;;;;;112.50;54.13;;;;;;;7.45;70.85;99761.47;5031461;28;20021;-26
2024/01/01 03:34:36;;;;;;;113.78;54.67;;;;;;;7.36;71.12;99755.44;5031377;28;20025;-27
2024/01/01 03:37:02;;;;;;;112.20;54.72;;;;;;;7.39;70.58;99746.31;5031544;28;20517;-27
2024/01/01 03:39:28;;;;;;;107.93;53.15;;;;;;;7.30;70.66;99750.88;5031376;28;20166;-26
2024/01/01 03:41:53;;;;;;;110.55;53.40;;;;;;;7.18;71.10;99747.84;5031257;28;20033;-27
2024/01/01 03:44:18;;;;;;;106.07;53.63;;;;;;;7.28;70.86;99757.34;5018813;28;20037;-26
2024/01/01 03:46:45;;;;;;;112.13;54.65;;;;;;;7.41;70.34;99763.66;5030522;28;20037;-26
2024/01/01 03:49:11;;;;;;;111.38;53.95;;;;;;;7.32;70.68;99761.28;5030800;28;20496;-25
2024/01/01 03:51:36;;;;;;;108.65;53.95;;;;;;;7.40;69.98;99754.06;5030972;28;20054;-26
2024/01/01 03:54:02;;;;;;;102.50;52.38;;;;;;;7.40;69.66;99750.59;5031262;28;20030;-25
2024/01/01 03:56:27;;;;;;;112.40;52.75;;;;;;;7.43;70.12;99751.06;5030673;28;20045;-26
2024/01/01 03:58:53;;;;;;;108.13;53.15;;;;;;;7.48;70.01;99758.44;5031148;28;20104;-26
2024/01/01 04:01:21;;;;;;;103.65;52.45;;;;;;;7.52;69.32;99757.09;5025219;28;20025;-25
2024/01/01 04:03:46;;;;;;;102.18;53.05;;;;;;;7.51;69.20;99750.13;5012333;28;20022;-26
2024/01/01 04:06:11;;;;;;;112.85;53.85;;;;;;;7.50;69.41;99745.00;5010726;28;20041;-26
2024/01/01 04:08:36;;;;;;;107.00;53.33;;;;;;;7.52;69.12;99750.94;5011189;28;20057;-26
2024/01/01 04:11:02;;;;;;;118.30;55.70;;;;;;;7.47;69.18;99753.34;5011159;28;20030;-26
2024/01/01 04:13:27;;;;;;;113.63;54.17;;;;;;;7.18;70.03;99752.34;5010809;28;20451;-25
2024/01/01 04:15:53;;;;;;;104.88;53.35;;;;;;;7.16;70.27;99749.84;5026516;28;20071;-26
2024/01/01 04:18:18;;;;;;;116.35;52.72;;;;;;;7.32;69.63;99754.16;5030742;28;20041;-26
2024/01/01 04:20:43;;;;;;;107.82;53.67;;;;;;;7.42;69.46;99754.72;5030729;28;20029;-25
2024/01/01 04:23:09;;;;;;;104.90;53.15;;;;;;;7.48;69.28;99754.97;5030790;28;20481;-26
2024/01/01 04:25:34;;;;;;;100.97;51.05;;;;;;;7.52;69.17;99748.31;5030578;28;20370;-26
2024/01/01 04:27:59;;;;;;;100.90;50.50;;;;;;;7.31;70.11;99751.69;5030501;28;20091;-25
2024/01/01 04:30:25;;;;;;;102.10;51.42;;;;;;;7.32;70.49;99742.75;5030480;28;20025;-26
2024/01/01 04:32:50;;;;;;;100.90;52.47;;;;;;;7.42;70.33;99736.19;5030309;28;20025;-25
2024/01/01 04:35:16;;;;;;;100.97;50.08;;;;;;;7.28;70.66;99744.13;5030544;28;20486;-26
2024/01/01 04:37:41;;;;;;;112.57;54.38;;;;;;;7.35;70.78;99742.38;5030455;28;20048;-26
2024/01/01 04:40:07;;;;;;;121.47;56.55;;;;;;;7.31;70.53;99741.94;5030384;28;20426;-27
2024/01/01 04:42:32;;;;;;;107.50;53.17;;;;;;;7.33;70.39;99731.97;5029355;28;20032;-25
2024/01/01 04:44:58;;;;;;;96.50;48.78;;;;;;;7.38;69.93;99742.81;5010525;28;20497;-26
2024/01/01 04:47:23;;;;;;;97.05;48.47;;;;;;;7.33;70.79;99750.50;5010629;28;20021;-26
2024/01/01 04:49:48;;;;;;;95.47;46.53;;;;;;;7.43;70.18;99747.59;5010921;28;20104;-26
2024/01/01 04:52:14;;;;;;;81.22;43.72;;;;;;;7.53;70.07;99734.06;5010662;28;20053;-26
2024/01/01 04:54:39;;;;;;;96.60;47.72;;;;;;;7.53;70.05;99744.66;5010638;28;20014;-26
2024/01/01 04:57:04;;;;;;;85.47;44.42;;;;;;;7.50;69.95;99739.72;5010767;28;20436;-26
2024/01/01 04:59:30;;;;;;;86.20;44.92;;;;;;;7.52;69.85;99740.34;5010651;28;20056;-25
2024/01/01 05:01:55;;;;;;;93.95;47.58;;;;;;;7.51;69.89;99734.25;5010693;28;20029;-25
2024/01/01 05:04:21;;;;;;;90.15;46.90;;;;;;;7.45;69.65;99729.69;5010886;28;20143;-26
2024/01/01 05:06:46;;;;;;;94.53;46.13;;;;;;;7.30;70.36;99726.22;5010407;28;20097;-26
2024/01/01 05:09:11;;;;;;;84.50;43.95;;;;;;;7.23;70.54;99726.97;5010998;28;20072;-26
2024/01/01 05:11:40;;;;;;;81.78;41.88;;;;;;;7.14;71.35;99732.50;5010400;28;20419;-26
2024/01/01 05:14:06;;;;;;;82.80;42.75;;;;;;;7.34;70.78;99740.75;5011779;28;20112;-26
2024/01/01 05:16:33;;;;;;;77.03;42.13;;;;;;;7.39;69.84;99735.72;5010870;28;20501;-26
2024/01/01 05:18:58;;;;;;;79.32;40.05;;;;;;;7.32;70.10;99732.97;5026908;28;20485;-25
2024/01/01 05:21:24;;;;;;;75.78;39.42;;;;;;;7.32;70.44;99732.97;5034269;28;20028;-26
2024/01/01 05:23:49;;;;;;;74.50;39.70;;;;;;;7.36;70.42;99726.31;5034567;28;20045;-26
2024/01/01 05:26:15;;;;;;;78.75;40.15;;;;;;;7.48;69.65;99724.00;5034222;28;20313;-26
2024/01/01 05:28:40;;;;;;;71.75;38.25;;;;;;;7.42;69.35;99722.09;5034101;28;20025;-26
2024/01/01 05:31:06;;;;;;;69.60;35.03;;;;;;;7.41;69.73;99723.94;5034435;28;20030;-26
2024/01/01 05:33:31;;;;;;;62.83;33.88;;;;;;;7.30;70.23;99721.75;5033875;28;20482;-26
2024/01/01 05:35:56;;;;;;;57.95;31.30;;;;;;;7.40;70.40;99721.47;5020603;28;20025;-26
2024/01/01 05:38:22;;;;;;;65.25;34.95;;;;;;;7.54;69.51;99725.09;5026147;28;20204;-26
2024/01/01 05:40:47;;;;;;;61.13;33.10;;;;;;;7.52;69.03;99727.97;5014341;28;20022;-26
2024/01/01 05:43:13;;;;;;;63.78;34.47;;;;;;;7.36;69.14;99725.50;5014215;28;20022;-26
2024/01/01 05:45:39;;;;;;;64.13;35.25;;;;;;;7.42;69.20;99722.09;5014168;28;20065;-26
2024/01/01 05:48:05;;;;;;;75.13;39.47;;;;;;;7.31;69.81;99720.75;5013936;28;20072;-26
2024/01/01 05:50:30;;;;;;;76.57;39.72;;;;;;;7.20;69.68;99726.50;5013767;28;20124;-26
2024/01/01 05:52:56;;;;;;;78.32;40.03;;;;;;;7.03;70.07;99713.44;5013888;28;20026;-27
2024/01/01 05:55:22;;;;;;;76.22;37.17;;;;;;;7.09;70.68;99722.47;5016121;28;20021;-26
2024/01/01 05:57:47;;;;;;;78.38;39.40;;;;;;;6.82;70.93;99719.41;5033715;28;20025;-26
2024/01/01 06:00:13;;;;;;;81.85;41.40;;;;;;;6.84;70.03;99721.88;5033772;28;20052;-27
2024/01/01 06:02:39;;;;;;;80.40;42.10;;;;;;;6.73;70.74;99711.75;5033718;28;20100;-27
2024/01/01 06:05:04;;;;;;;77.78;40.45;;;;;;;6.77;70.26;99727.06;5022289;28;20485;-27
2024/01/01 06:07:30;;;;;;;78.70;40.28;;;;;;;6.88;70.36;99728.47;5015667;28;20022;-27
2024/01/01 06:09:57;;;;;;;77.45;40.67;;;;;;;7.02;69.80;99724.19;5033370;28;20036;-27
2024/01/01 06:12:23;;;;;;;79.80;40.72;;;;;;;7.18;69.48;99725.88;5033599;28;20028;-27
2024/01/01 06:14:48;;;;;;;74.93;38.75;;;;;;;7.26;69.54;99725.75;5033318;28;20029;-26
2024/01/01 06:17:14;;;;;;;78.38;39.72;;;;;;;7.35;68.70;99724.69;5029425;28;20101;-26
2024/01/01 06:19:39;;;;;;;75.93;39.28;;;;;;;7.48;68.64;99721.38;5013517;28;20026;-26
2024/01/01 06:22:05;;;;;;;74.55;38.25;;;;;;;7.78;68.22;99719.50;5013458;28;20033;-26
2024/01/01 06:24:30;;;;;;;74.63;39.17;;;;;;;7.84;67.07;99723.22;5013567;28;20469;-26
2024/01/01 06:26:55;;;;;;;82.90;43.30;;;;;;;8.10;66.06;99706.81;5013350;28;20113;-26
2024/01/01 06:29:21;;;;;;;97.45;46.47;;;;;;;8.05;66.35;99725.09;5013402;28;20037;-26
2024/01/01 06:31:47;;;;;;;80.90;41.47;;;;;;;8.07;66.36;99715.13;5013222;28;20080;-26
2024/01/01 06:34:12;;;;;;;77.47;41.03;;;;;;;8.10;66.67;99713.94;5013345;28;20029;-26
2024/01/01 06:36:38;;;;;;;75.10;39.97;;;;;;;8.39;66.28;99724.44;5013339;28;20084;-26
2024/01/01 06:39:03;;;;;;;72.82;38.55;;;;;;;8.48;65.66;99725.16;5012990;28;20096;-26
2024/01/01 06:41:29;;;;;;;67.35;37.47;;;;;;;8.77;65.56;99726.03;5013221;28;20030;-27
2024/01/01 06:43:54;;;;;;;68.57;37.78;;;;;;;8.82;64.97;99723.63;5013043;28;20026;-26
2024/01/01 06:46:19;;;;;;;69.95;38.78;;;;;;;9.22;64.02;99721.25;5022157;28;20036;-26
2024/01/01 06:48:45;;;;;;;66.65;37.63;;;;;;;9.34;63.44;99732.94;5031021;28;20091;-27
2024/01/01 06:51:11;;;;;;;70.13;38.05;;;;;;;9.47;62.74;99734.84;5012966;28;20046;-27
2024/01/01 06:53:37;;;;;;;64.32;36.72;;;;;;;9.61;62.69;99733.06;5012995;28;20030;-27
2024/01/01 06:56:03;;;;;;;75.20;39.25;;;;;;;9.80;62.23;99736.84;5012574;28;20018;-27
2024/01/01 06:58:28;;;;;;;71.55;40.22;;;;;;;10.05;61.70;99745.13;5012638;28;20044;-27
2024/01/01 07:00:53;;;;;;;68.55;38.25;;;;;;;10.16;61.01;99738.41;5014720;28;20068;-26
2024/01/01 07:03:19;;;;;;;65.80;37.00;;;;;;;10.18;60.47;99747.84;5030123;28;20033;-27
2024/01/01 07:05:44;;;;;;;67.68;38.70;;;;;;;10.39;60.43;99743.38;5023229;28;20061;-27
2024/01/01 07:08:09;;;;;;;69.53;38.15;;;;;;;10.57;59.52;99740.97;5021632;28;20037;-26
2024/01/01 07:10:35;;;;;;;66.07;37.45;;;;;;;10.76;59.95;99741.19;5012530;28;20096;-27
2024/01/01 07:13:00;;;;;;;66.05;37.72;;;;;;;10.87;58.54;99731.75;5017008;28;20022;-27
2024/01/01 07:15:26;;;;;;;66.05;35.60;;;;;;;10.83;58.42;99741.16;5022567;28;20026;-27
2024/01/01 07:17:51;;;;;;;50.33;26.35;;;;;;;10.84;58.22;99740.16;5017902;28;20021;-27
2024/01/01 07:20:17;;;;;;;48.50;28.95;;;;;;;10.66;58.42;99736.28;5031922;28;20107;-26
2024/01/01 07:22:43;;;;;;;45.35;26.75;;;;;;;10.61;59.22;99732.59;5031653;28;20540;-27
2024/01/01 07:25:09;;;;;;;42.80;23.98;;;;;;;10.44;59.88;99726.81;5031808;28;20040;-27
2024/01/01 07:27:34;;;;;;;42.30;25.17;;;;;;;10.52;59.85;99729.28;5032079;28;20457;-27
2024/01/01 07:30:03;;;;;;;42.28;24.75;;;;;;;10.70;59.45;99723.34;5031754;28;20383;-26
2024/01/01 07:32:29;;;;;;;36.80;22.17;;;;;;;10.95;59.32;99726.22;5031741;28;20029;-27
2024/01/01 07:34:54;;;;;;;33.17;19.95;;;;;;;11.24;59.66;99730.28;5029981;28;20013;-27
2024/01/01 07:37:19;;;;;;;30.50;17.65;;;;;;;11.43;58.46;99725.13;5025791;28;20033;-27
2024/01/01 07:39:45;;;;;;;27.45;16.55;;;;;;;10.27;61.07;99708.56;5028904;28;20481;-27
2024/01/01 07:42:11;;;;;;;22.98;14.45;;;;;;;10.08;61.81;99704.84;5031532;28;20029;-26
2024/01/01 07:44:36;;;;;;;22.92;14.90;;;;;;;9.62;63.40;99713.47;5031196;28;20419;-26
2024/01/01 07:47:02;;;;;;;29.10;16.30;;;;;;;10.16;62.26;99711.81;5031625;28;20346;-26
2024/01/01 07:49:27;;;;;;;24.95;15.63;;;;;;;9.81;63.42;99716.41;5024778;28;20029;-26
2024/01/01 07:51:52;;;;;;;29.30;16.38;;;;;;;9.28;63.32;99723.09;5011965;28;20481;-26
2024/01/01 07:54:18;;;;;;;30.25;16.27;;;;;;;9.50;64.44;99710.56;5011648;28;20030;-27
2024/01/01 07:56:44;;;;;;;25.75;16.35;;;;;;;10.04;62.87;99702.78;5011552;28;20041;-27
2024/01/01 07:59:11;;;;;;;28.08;16.10;;;;;;;9.91;61.87;99696.41;5011700;28;20120;-27
2024/01/01 08:01:36;;;;;;;26.40;15.77;;;;;;;10.24;61.90;99687.66;5011544;28;20021;-27
2024/01/01 08:04:02;;;;;;;26.45;15.93;;;;;;;10.17;62.89;99693.00;5012090;28;20037;-26
2024/01/01 08:06:27;;;;;;;26.83;16.90;;;;;;;10.07;62.13;99703.22;5011457;28;20413;-26
2024/01/01 08:08:52;;;;;;;29.63;17.83;;;;;;;10.90;60.71;99699.41;5013099;28;20021;-28
2024/01/01 08:11:19;;;;;;;32.88;19.95;;;;;;;11.50;59.31;99704.59;5030901;28;20025;-26
2024/01/01 08:13:45;;;;;;;34.25;19.65;;;;;;;10.99;58.31;99700.81;5031204;28;20501;-25
2024/01/01 08:16:11;;;;;;;33.75;19.63;;;;;;;11.19;60.26;99705.28;5030431;28;20079;-26
2024/01/01 08:18:36;;;;;;;29.60;18.75;;;;;;;11.31;59.11;99699.13;5018932;28;20381;-27
2024/01/01 08:21:02;;;;;;;31.55;19.42;;;;;;;10.82;58.61;99689.78;5030070;28;20026;-27
2024/01/01 08:23:27;;;;;;;31.30;19.35;;;;;;;11.57;59.10;99700.03;5023380;28;20104;-27
2024/01/01 08:25:52;;;;;;;34.45;19.50;;;;;;;11.75;57.61;99696.72;5024257;28;20079;-26
2024/01/01 08:28:18;;;;;;;30.35;18.85;;;;;;;11.47;56.36;99699.69;5023254;28;20064;-26
2024/01/01 08:30:43;;;;;;;30.63;18.40;;;;;;;11.58;58.95;99696.38;5025105;28;20489;-26
2024/01/01 08:33:09;;;;;;;32.13;19.63;;;;;;;11.48;58.73;99691.47;5023745;28;20029;-29
2024/01/01 08:35:35;;;;;;;33.20;18.67;;;;;;;11.72;56.31;99689.94;5027584;28;20108;-27
2024/01/01 08:38:00;;;;;;;29.40;18.98;;;;;;;11.68;57.89;99702.06;5025274;28;20045;-27
2024/01/01 08:40:26;;;;;;;30.17;19.08;;;;;;;11.57;58.62;99699.22;5020897;28;20025;-27
2024/01/01 08:42:51;;;;;;;32.22;19.50;;;;;;;12.61;56.08;99689.22;5024870;28;20021;-26
2024/01/01 08:45:19;;;;;;;33.78;18.60;;;;;;;12.21;55.56;99686.84;5028056;28;20018;-26
2024/01/01 08:47:45;;;;;;;31.35;18.88;;;;;;;12.09;56.10;99692.06;5025617;28;20022;-27
2024/01/01 08:50:12;;;;;;;32.65;19.60;;;;;;;12.29;55.20;99692.72;5039148;28;20053;-27
2024/01/01 08:52:37;;;;;;;30.48;18.65;;;;;;;12.47;55.53;99692.00;5037481;28;20137;-28
2024/01/01 08:55:03;;;;;;;28.25;17.38;;;;;;;12.04;56.21;99692.69;5035238;28;20513;-26
2024/01/01 08:57:29;;;;;;;26.02;16.27;;;;;;;12.03;55.81;99682.22;5048233;28;20029;-26
2024/01/01 08:59:54;;;;;;;24.02;15.60;;;;;;;12.10;56.32;99680.34;5035502;28;20051;-27
2024/01/01 09:02:19;;;;;;;28.13;16.95;;;;;;;12.02;56.27;99680.59;5027564;28;20051;-27
2024/01/01 09:04:45;;;;;;;23.73;15.57;;;;;;;12.15;55.89;99671.69;5042018;28;20065;-27
2024/01/01 09:07:10;;;;;;;24.30;15.52;;;;;;;12.01;55.87;99671.75;5024861;28;20028;-27
2024/01/01 09:09:37;;;;;;;25.33;14.85;;;;;;;12.05;56.36;99670.31;5034302;28;20113;-27
2024/01/01 09:12:02;;;;;;;24.92;14.60;;;;;;;12.20;56.12;99667.34;5034180;28;20060;-28
2024/01/01 09:14:28;;;;;;;24.52;15.82;;;;;;;12.63;55.07;99657.78;5035280;28;20083;-27
2024/01/01 09:16:53;;;;;;;23.50;14.38;;;;;;;12.43;55.33;99649.94;5032568;28;20452;-27
2024/01/01 09:19:19;;;;;;;20.88;13.50;;;;;;;12.64;55.23;99654.06;5023890;28;20044;-28
2024/01/01 09:21:44;;;;;;;20.25;13.57;;;;;;;12.54;54.83;99653.75;5034358;28;20022;-29
2024/01/01 09:24:10;;;;;;;22.75;13.98;;;;;;;12.74;54.78;99649.06;5034917;28;20040;-26
2024/01/01 09:26:37;;;;;;;20.77;13.10;;;;;;;12.78;54.63;99636.09;5034272;28;20025;-28
2024/01/01 09:29:04;;;;;;;19.60;12.90;;;;;;;12.65;55.10;99635.16;5033547;28;20048;-28
2024/01/01 09:31:30;;;;;;;20.05;12.73;;;;;;;13.00;53.78;99641.81;5043775;28;20036;-27
2024/01/01 09:34:00;;;;;;;21.63;13.20;;;;;;;13.00;54.63;99639.13;5040785;28;20473;-27
2024/01/01 09:36:26;;;;;;;18.27;12.13;;;;;;;13.20;53.39;99631.72;5054205;28;20036;-28
2024/01/01 09:38:51;;;;;;;19.58;12.48;;;;;;;12.78;54.60;99641.44;5054361;28;20518;-28
2024/01/01 09:41:17;;;;;;;18.58;11.55;;;;;;;12.42;55.55;99633.09;5054036;28;20033;-27
2024/01/01 09:43:44;;;;;;;18.27;11.85;;;;;;;12.40;55.73;99626.38;5054466;28;20141;-28
2024/01/01 09:46:11;;;;;;;17.85;11.45;;;;;;;12.50;55.66;99632.00;5054573;28;20071;-26
2024/01/01 09:48:36;;;;;;;16.92;11.10;;;;;;;12.36;56.00;99630.50;5054597;28;20106;-26
2024/01/01 09:51:03;;;;;;;22.63;11.95;;;;;;;12.45;56.33;99632.69;5054472;28;20077;-28
2024/01/01 09:53:30;;;;;;;17.77;12.02;;;;;;;12.39;56.64;99622.84;5054591;28;20053;-28
2024/01/01 09:55:55;;;;;;;20.38;11.65;;;;;;;12.42;56.58;99621.63;5054127;28;20067;-27
2024/01/01 09:58:21;;;;;;;18.60;11.98;;;;;;;13.02;55.00;99627.22;5054172;28;20424;-28
2024/01/01 10:00:48;;;;;;;19.83;12.55;;;;;;;13.14;55.03;99619.25;5054188;28;20029;-26
2024/01/01 10:03:14;;;;;;;17.23;11.68;;;;;;;12.95;54.97;99614.97;5053425;28;20028;-27
2024/01/01 10:05:40;;;;;;;19.13;12.77;;;;;;;13.13;54.62;99617.63;5054121;28;20029;-27
2024/01/01 10:08:13;;;;;;;19.65;12.18;;;;;;;13.37;54.13;99615.13;5053869;28;20465;-29
2024/01/01 10:10:39;;;;;;;21.52;11.75;;;;;;;13.60;53.75;99617.09;5042807;28;20033;-27
2024/01/01 10:13:08;;;;;;;18.67;11.88;;;;;;;13.63;53.15;99611.28;5034249;28;20018;-27
2024/01/01 10:15:33;;;;;;;19.77;12.35;;;;;;;13.45;53.66;99602.25;5033861;28;20022;-27
2024/01/01 10:18:10;;;;;;;19.45;12.40;;;;;;;13.08;54.56;99602.28;5051889;28;20051;-29
2024/01/01 10:20:37;;;;;;;23.70;13.48;;;;;;;12.91;55.43;99591.34;5037117;28;20018;-27
2024/01/01 10:23:25;;;;;;;18.48;13.45;;;;;;;12.91;55.98;99593.22;5033767;28;20076;-28
2024/01/01 10:26:09;;;;;;;22.45;14.32;;;;;;;13.08;55.83;99582.75;5033799;28;20151;-27
2024/01/01 10:28:35;;;;;;;22.25;13.63;;;;;;;13.02;55.96;99581.78;5034072;28;20056;-28
2024/01/01 10:31:02;;;;;;;21.25;13.90;;;;;;;12.46;57.55;99575.59;5033757;28;20067;-27
2024/01/01 10:33:29;;;;;;;23.73;15.27;;;;;;;12.74;57.02;99566.28;5033405;28;20409;-28
2024/01/01 10:35:56;;;;;;;29.95;15.80;;;;;;;12.87;56.62;99557.28;5033538;28;20521;-27
2024/01/01 10:38:24;;;;;;;23.02;14.98;;;;;;;12.89;56.71;99549.91;5033525;28;20393;-27
2024/01/01 10:40:51;;;;;;;24.75;15.65;;;;;;;12.82;57.15;99554.50;5033726;28;20109;-27
2024/01/01 10:43:19;;;;;;;25.88;16.52;;;;;;;12.45;58.38;99541.09;5033771;28;20041;-27
2024/01/01 10:45:45;;;;;;;26.58;16.60;;;;;;;12.70;58.17;99549.88;5033512;28;20018;-27
2024/01/01 10:48:14;;;;;;;28.40;17.30;;;;;;;12.56;58.75;99550.25;5033381;28;20112;-26
2024/01/01 10:50:48;;;;;;;28.00;17.25;;;;;;;12.97;57.53;99552.25;5033168;28;20053;-28
2024/01/01 10:53:36;;;;;;;26.48;17.88;;;;;;;13.00;57.60;99551.78;5032999;28;20048;-26
2024/01/01 10:56:16;;;;;;;28.98;18.00;;;;;;;13.05;57.64;99540.44;5033518;28;20454;-27
2024/01/01 10:59:02;;;;;;;25.80;16.33;;;;;;;13.07;57.59;99530.34;5033256;28;20028;-28
2024/01/01 11:01:29;;;;;;;32.25;18.23;;;;;;;12.90;58.47;99522.13;5032587;28;20029;-27
2024/01/01 11:03:54;;;;;;;26.60;16.85;;;;;;;13.06;58.34;99515.34;5033271;28;20032;-28
2024/01/01 11:06:20;;;;;;;27.20;17.33;;;;;;;13.06;57.88;99518.03;5033157;28;20029;-27
2024/01/01 11:08:46;;;;;;;26.73;16.55;;;;;;;12.95;58.87;99516.94;5033077;28;20036;-28
2024/01/01 11:11:30;;;;;;;29.52;17.08;;;;;;;13.11;58.15;99513.63;5020367;28;20033;-28
2024/01/01 11:13:56;;;;;;;27.80;17.00;;;;;;;13.33;57.60;99507.84;5013289;28;20026;-28